Time;durP1;ratioP1;P1;durP2;ratioP2;P2;SDS_P1;SDS_P2;PMS_P1;PMS_P2;Temp;Humidity;BMP_temperature;BMP_pressure;BME280_temperature;BME280_humidity;BME280_pressure;Samples;Min_cycle;Max_cycle;Signal;HPM_P1;HPM_P2
2021/12/06 00:00:50;;;;;;;3.22;1.60;;;22.70;39.60;;;;;;5027466;28;20087;-47
2021/12/06 00:03:24;;;;;;;3.13;1.60;;;22.70;39.60;;;;;;5027736;28;20025;-48
2021/12/06 00:05:50;;;;;;;3.38;1.40;;;22.70;39.60;;;;;;5016119;28;20465;-48
2021/12/06 00:08:15;;;;;;;3.20;1.60;;;22.70;39.50;;;;;;5008213;28;20028;-47
2021/12/06 00:10:42;;;;;;;3.30;1.73;;;22.60;39.40;;;;;;5007993;28;20025;-46
2021/12/06 00:13:08;;;;;;;3.92;2.03;;;22.60;39.40;;;;;;5007857;28;20116;-51
2021/12/06 00:15:34;;;;;;;3.92;1.95;;;22.60;39.40;;;;;;5006785;28;20104;-47
2021/12/06 00:18:01;;;;;;;3.28;1.75;;;22.60;39.40;;;;;;5007240;28;20617;-47
2021/12/06 00:20:27;;;;;;;3.90;1.88;;;22.60;39.40;;;;;;5007912;28;20030;-47
2021/12/06 00:22:53;;;;;;;3.55;2.05;;;22.60;39.30;;;;;;5006229;28;20033;-48
2021/12/06 00:25:19;;;;;;;3.75;2.00;;;22.60;39.40;;;;;;5008703;28;20105;-47
2021/12/06 00:27:45;;;;;;;3.28;1.63;;;22.60;39.40;;;;;;5008229;28;20120;-47
2021/12/06 00:30:15;;;;;;;3.63;1.77;;;22.50;39.40;;;;;;5011334;28;20363;-47
2021/12/06 00:32:42;;;;;;;3.38;1.60;;;22.50;39.40;;;;;;5026836;28;20144;-46
2021/12/06 00:35:18;;;;;;;2.95;1.63;;;22.50;40.00;;;;;;5027086;28;20643;-48
2021/12/06 00:37:53;;;;;;;3.38;1.70;;;22.50;39.40;;;;;;5025898;28;20056;-46
2021/12/06 00:40:20;;;;;;;3.00;1.50;;;22.50;39.40;;;;;;5027080;28;20026;-47
2021/12/06 00:42:46;;;;;;;3.22;1.70;;;22.50;39.40;;;;;;5027286;28;20037;-48
2021/12/06 00:45:12;;;;;;;2.55;1.25;;;22.50;39.40;;;;;;5025155;28;20091;-48
2021/12/06 00:47:37;;;;;;;3.10;1.77;;;22.50;39.30;;;;;;5015559;28;20525;-47
2021/12/06 00:50:05;;;;;;;2.42;1.40;;;22.50;39.40;;;;;;5027023;28;20112;-47
2021/12/06 00:52:31;;;;;;;3.92;1.92;;;22.50;39.40;;;;;;5024578;28;20550;-47
2021/12/06 00:54:57;;;;;;;2.85;1.50;;;22.50;40.00;;;;;;5026889;28;20034;-48
2021/12/06 00:57:22;;;;;;;2.75;1.25;;;22.50;39.30;;;;;;5026370;28;20033;-47
2021/12/06 00:59:48;;;;;;;3.00;1.42;;;22.40;39.20;;;;;;5026778;28;20508;-47
2021/12/06 01:02:15;;;;;;;3.35;1.50;;;22.40;39.30;;;;;;5026265;28;20032;-47
2021/12/06 01:04:43;;;;;;;3.15;1.50;;;22.40;39.20;;;;;;5025324;28;20033;-47
2021/12/06 01:07:10;;;;;;;3.20;1.70;;;22.40;39.20;;;;;;5007014;28;20044;-48
2021/12/06 01:09:36;;;;;;;3.10;1.33;;;22.40;39.30;;;;;;5006801;28;20030;-46
2021/12/06 01:12:02;;;;;;;2.78;1.50;;;22.40;39.30;;;;;;5006763;28;20032;-47
2021/12/06 01:14:28;;;;;;;3.67;1.77;;;22.40;39.20;;;;;;5006551;28;20061;-46
2021/12/06 01:16:53;;;;;;;3.85;1.67;;;22.40;39.20;;;;;;5006881;28;20076;-46
2021/12/06 01:19:19;;;;;;;2.85;1.52;;;22.40;39.30;;;;;;5005908;28;20534;-47
2021/12/06 01:21:53;;;;;;;3.00;1.65;;;22.30;39.30;;;;;;5023018;28;20029;-47
2021/12/06 01:24:25;;;;;;;2.80;1.50;;;22.40;39.90;;;;;;5026296;28;20642;-48
2021/12/06 01:27:11;;;;;;;3.15;1.52;;;22.30;39.30;;;;;;5026789;28;20623;-46
2021/12/06 01:30:00;;;;;;;2.40;1.58;;;22.30;39.20;;;;;;5026519;28;20307;-47
2021/12/06 01:40:28;;;;;;;3.28;1.40;;;22.30;39.30;;;;;;5035383;28;20030;-48
2021/12/06 01:42:54;;;;;;;3.22;1.70;;;22.30;39.40;;;;;;5025487;28;20021;-47
2021/12/06 01:45:20;;;;;;;3.58;2.03;;;22.30;39.50;;;;;;5026055;28;20037;-47
2021/12/06 01:47:46;;;;;;;2.75;1.52;;;22.30;39.50;;;;;;5025906;28;20030;-46
2021/12/06 01:50:15;;;;;;;2.80;1.38;;;22.20;39.30;;;;;;5028270;28;20578;-47
2021/12/06 01:52:45;;;;;;;3.75;1.42;;;22.30;39.40;;;;;;5025405;28;20057;-46
2021/12/06 01:55:16;;;;;;;2.28;1.27;;;22.30;39.30;;;;;;5025503;28;20056;-47
2021/12/06 01:57:42;;;;;;;2.20;1.15;;;22.20;39.20;;;;;;5025380;28;20028;-47
2021/12/06 02:00:19;;;;;;;3.50;1.30;;;22.20;39.20;;;;;;5024936;28;20033;-48
2021/12/06 02:02:45;;;;;;;2.35;1.20;;;22.20;39.20;;;;;;5025182;28;20037;-46
2021/12/06 02:05:11;;;;;;;2.13;0.98;;;22.20;39.30;;;;;;5024065;28;20025;-48
2021/12/06 02:07:37;;;;;;;2.88;1.38;;;22.20;39.20;;;;;;5025311;28;20029;-48
2021/12/06 02:10:05;;;;;;;1.90;1.05;;;22.20;39.20;;;;;;5025508;28;20038;-48
2021/12/06 02:12:32;;;;;;;2.63;1.40;;;22.20;39.30;;;;;;5025206;28;20025;-46
2021/12/06 02:15:14;;;;;;;2.17;1.13;;;22.20;39.20;;;;;;5025363;28;20029;-46
2021/12/06 02:17:43;;;;;;;2.28;1.10;;;22.20;39.20;;;;;;5023528;28;20033;-47
2021/12/06 02:20:24;;;;;;;2.45;1.08;;;22.20;39.20;;;;;;5025348;28;20025;-48
2021/12/06 02:22:50;;;;;;;2.30;1.27;;;22.20;39.30;;;;;;5024992;28;20026;-47
2021/12/06 02:25:18;;;;;;;1.85;0.98;;;22.20;39.20;;;;;;5025574;28;20258;-47
2021/12/06 02:27:46;;;;;;;2.72;1.42;;;22.10;39.30;;;;;;5024913;28;20041;-46
2021/12/06 02:30:13;;;;;;;2.45;1.17;;;22.10;39.20;;;;;;5024996;28;20025;-47
2021/12/06 02:32:40;;;;;;;2.88;1.35;;;22.10;39.20;;;;;;5024609;28;20497;-47
2021/12/06 02:35:11;;;;;;;2.10;1.00;;;22.10;39.20;;;;;;5020878;28;20069;-47
2021/12/06 02:37:37;;;;;;;2.28;1.10;;;22.10;39.30;;;;;;5004921;28;20022;-47
2021/12/06 02:40:17;;;;;;;2.47;1.30;;;22.10;39.20;;;;;;5005327;28;20026;-47
2021/12/06 02:42:46;;;;;;;2.15;1.00;;;22.10;39.30;;;;;;5004910;28;20576;-46
2021/12/06 02:45:13;;;;;;;2.33;1.20;;;22.10;39.30;;;;;;5005413;28;20130;-47
2021/12/06 02:47:41;;;;;;;2.85;1.33;;;22.10;39.30;;;;;;5005150;28;20101;-47
2021/12/06 02:50:10;;;;;;;2.58;1.20;;;22.10;39.20;;;;;;5015445;28;20387;-47
2021/12/06 02:52:37;;;;;;;2.33;1.17;;;22.00;39.20;;;;;;5024071;28;20104;-47
2021/12/06 02:55:20;;;;;;;2.38;1.20;;;22.00;39.20;;;;;;5023251;28;20034;-48
2021/12/06 02:57:47;;;;;;;2.53;1.20;;;22.00;39.20;;;;;;5024506;28;20033;-47
2021/12/06 03:00:13;;;;;;;2.10;1.00;;;22.00;39.20;;;;;;5024518;28;20061;-47
2021/12/06 03:02:39;;;;;;;2.83;1.10;;;22.00;39.20;;;;;;5023910;28;20465;-49
2021/12/06 03:05:05;;;;;;;2.17;1.05;;;22.00;39.20;;;;;;5024577;28;20030;-48
2021/12/06 03:07:36;;;;;;;2.35;1.10;;;22.00;39.20;;;;;;5022954;28;20087;-47
2021/12/06 03:10:02;;;;;;;1.95;0.90;;;22.00;39.20;;;;;;5024472;28;20049;-47
2021/12/06 03:12:28;;;;;;;2.47;1.10;;;22.00;39.20;;;;;;5021923;28;20032;-48
2021/12/06 03:14:57;;;;;;;2.00;0.88;;;22.00;39.20;;;;;;5024502;28;20026;-47
2021/12/06 03:17:27;;;;;;;1.98;1.02;;;22.00;39.20;;;;;;5022254;28;20028;-47
2021/12/06 03:19:53;;;;;;;2.67;1.42;;;22.00;39.30;;;;;;5023159;28;20022;-49
2021/12/06 03:22:19;;;;;;;3.13;1.10;;;22.00;39.30;;;;;;5003929;28;20674;-48
2021/12/06 03:24:46;;;;;;;2.28;1.10;;;22.00;39.20;;;;;;5003415;28;20034;-47
2021/12/06 03:27:13;;;;;;;2.72;1.20;;;22.00;39.20;;;;;;5003243;28;20026;-47
2021/12/06 03:29:39;;;;;;;1.83;0.90;;;21.90;39.30;;;;;;5004651;28;20100;-46
2021/12/06 03:32:05;;;;;;;2.22;1.00;;;21.90;39.30;;;;;;5021856;28;20065;-47
2021/12/06 03:34:32;;;;;;;2.38;1.02;;;22.00;39.30;;;;;;5023698;28;20033;-47
2021/12/06 03:37:01;;;;;;;2.35;1.15;;;21.90;39.40;;;;;;5024084;28;20033;-47
2021/12/06 03:39:48;;;;;;;1.83;0.90;;;21.90;39.40;;;;;;5023887;28;20054;-47
2021/12/06 03:42:16;;;;;;;1.95;0.98;;;21.90;39.30;;;;;;5024031;28;20036;-50
2021/12/06 03:44:41;;;;;;;2.10;0.98;;;21.90;39.20;;;;;;5024160;28;20049;-47
2021/12/06 03:47:16;;;;;;;2.10;1.08;;;21.90;39.20;;;;;;5023893;28;20433;-47
2021/12/06 03:49:42;;;;;;;1.90;1.00;;;21.90;39.20;;;;;;5025702;28;20071;-47
2021/12/06 03:52:09;;;;;;;2.25;1.02;;;21.90;39.20;;;;;;5025643;28;20033;-47
2021/12/06 03:54:35;;;;;;;2.25;0.88;;;21.90;39.30;;;;;;5028831;28;20049;-48
2021/12/06 03:57:02;;;;;;;2.58;1.30;;;21.90;39.20;;;;;;5024231;28;20029;-48
2021/12/06 03:59:28;;;;;;;2.85;1.30;;;21.90;39.20;;;;;;5027827;28;20025;-48
2021/12/06 04:01:54;;;;;;;2.33;1.02;;;21.90;39.20;;;;;;5025139;28;20824;-48
2021/12/06 04:04:21;;;;;;;2.13;1.17;;;21.90;39.20;;;;;;5022799;28;20104;-46
2021/12/06 04:06:47;;;;;;;1.85;0.95;;;21.90;39.20;;;;;;5022080;28;20125;-47
2021/12/06 04:09:13;;;;;;;2.15;0.98;;;21.90;39.20;;;;;;5023137;28;20037;-47
2021/12/06 04:11:39;;;;;;;1.73;1.00;;;21.90;39.80;;;;;;5023691;28;20059;-47
2021/12/06 04:14:06;;;;;;;2.20;1.20;;;21.90;39.20;;;;;;5023012;28;20117;-48
2021/12/06 04:16:32;;;;;;;2.65;1.10;;;21.90;39.20;;;;;;5022632;28;20030;-47
2021/12/06 04:18:58;;;;;;;1.88;1.02;;;21.90;39.20;;;;;;5024649;28;20030;-47
2021/12/06 04:21:26;;;;;;;1.85;0.82;;;21.90;39.10;;;;;;5015705;28;20080;-47
2021/12/06 04:23:52;;;;;;;2.00;0.93;;;21.90;39.10;;;;;;5007147;28;20041;-47
2021/12/06 04:26:19;;;;;;;2.35;0.95;;;21.90;39.20;;;;;;5008876;28;20026;-47
2021/12/06 04:28:48;;;;;;;1.92;1.00;;;21.90;39.10;;;;;;5026748;28;20052;-48
2021/12/06 04:31:16;;;;;;;2.63;1.02;;;21.80;39.10;;;;;;5025362;28;20397;-47
2021/12/06 04:33:42;;;;;;;2.55;1.42;;;21.90;39.10;;;;;;5027161;28;20029;-47
2021/12/06 04:36:08;;;;;;;2.40;1.20;;;21.90;39.10;;;;;;5027168;28;20021;-47
2021/12/06 04:38:34;;;;;;;2.05;1.02;;;21.80;39.00;;;;;;5027079;28;20037;-48
2021/12/06 04:41:00;;;;;;;2.30;1.10;;;21.90;39.10;;;;;;5025654;28;20033;-47
2021/12/06 04:43:26;;;;;;;2.47;1.20;;;21.80;39.00;;;;;;5026669;28;20041;-46
2021/12/06 04:45:51;;;;;;;2.17;1.02;;;21.80;39.10;;;;;;5027157;28;20052;-47
2021/12/06 04:48:17;;;;;;;2.45;1.10;;;21.80;39.10;;;;;;5026624;28;20056;-46
2021/12/06 04:50:43;;;;;;;1.80;1.02;;;21.90;39.10;;;;;;5033672;28;20032;-47
2021/12/06 04:53:14;;;;;;;2.42;1.20;;;21.80;39.10;;;;;;5025569;28;20037;-47
2021/12/06 04:55:43;;;;;;;2.22;0.98;;;21.80;39.10;;;;;;5026951;28;20033;-48
2021/12/06 04:58:12;;;;;;;2.72;1.25;;;21.80;39.10;;;;;;5026382;28;20029;-47
2021/12/06 05:00:48;;;;;;;2.58;1.25;;;21.80;39.10;;;;;;5026883;28;20025;-46
2021/12/06 05:03:16;;;;;;;2.40;1.40;;;21.80;39.10;;;;;;5026707;28;20405;-47
2021/12/06 05:05:48;;;;;;;2.58;1.10;;;21.80;39.20;;;;;;5027032;28;20030;-48
2021/12/06 05:08:19;;;;;;;2.70;1.30;;;21.70;39.10;;;;;;5026656;28;20108;-48
2021/12/06 05:10:46;;;;;;;2.10;1.13;;;21.80;39.20;;;;;;5026226;28;20030;-47
2021/12/06 05:13:12;;;;;;;2.65;1.15;;;21.80;39.20;;;;;;5026230;28;20024;-47
2021/12/06 05:15:38;;;;;;;2.20;1.08;;;21.80;39.20;;;;;;5024911;28;20052;-46
2021/12/06 05:18:05;;;;;;;2.22;1.15;;;21.80;39.30;;;;;;5025812;28;20477;-48
2021/12/06 05:20:31;;;;;;;2.13;1.08;;;21.80;39.30;;;;;;5025912;28;20429;-48
2021/12/06 05:22:57;;;;;;;2.33;1.27;;;21.80;39.30;;;;;;5026342;28;20413;-46
2021/12/06 05:25:25;;;;;;;2.88;1.20;;;21.80;39.30;;;;;;5026514;28;20033;-48
2021/12/06 05:27:52;;;;;;;1.65;0.95;;;21.80;39.30;;;;;;5025438;28;20029;-48
2021/12/06 05:30:21;;;;;;;2.47;1.20;;;21.80;40.00;;;;;;5023222;28;20021;-46
2021/12/06 05:32:47;;;;;;;2.13;1.13;;;21.80;39.40;;;;;;5025513;28;20656;-47
2021/12/06 05:35:13;;;;;;;2.53;1.38;;;21.90;39.50;;;;;;5025650;28;20021;-47
2021/12/06 05:37:48;;;;;;;1.77;0.90;;;21.90;39.50;;;;;;5005837;28;20511;-48
2021/12/06 05:40:21;;;;;;;2.25;1.10;;;22.00;39.40;;;;;;5004985;28;20092;-48
2021/12/06 05:42:47;;;;;;;1.75;0.93;;;22.00;39.40;;;;;;5016001;28;20033;-46
2021/12/06 05:45:19;;;;;;;2.47;1.02;;;22.10;39.40;;;;;;5025797;28;20060;-47
2021/12/06 05:47:45;;;;;;;2.67;1.00;;;22.10;39.40;;;;;;5025805;28;20087;-46
2021/12/06 05:50:12;;;;;;;2.15;1.10;;;22.20;39.30;;;;;;5032512;28;20021;-46
2021/12/06 05:52:38;;;;;;;2.80;1.42;;;22.20;39.20;;;;;;5025392;28;20056;-48
2021/12/06 05:55:06;;;;;;;2.15;0.90;;;22.30;39.20;;;;;;5025410;28;20029;-47
2021/12/06 05:57:32;;;;;;;2.00;1.00;;;22.40;39.10;;;;;;5025826;28;20064;-47
2021/12/06 05:59:58;;;;;;;2.25;1.10;;;22.40;39.00;;;;;;5025148;28;20025;-47
2021/12/06 06:02:24;;;;;;;1.90;0.90;;;22.50;39.00;;;;;;5024891;28;20519;-46
2021/12/06 06:04:50;;;;;;;3.88;1.02;;;22.60;38.80;;;;;;5023908;28;20035;-47
2021/12/06 06:07:15;;;;;;;3.00;1.15;;;22.60;38.80;;;;;;5022590;28;20032;-47
2021/12/06 06:09:41;;;;;;;2.17;1.20;;;22.70;38.70;;;;;;5023370;28;20030;-48
2021/12/06 06:12:08;;;;;;;2.55;1.20;;;22.80;38.70;;;;;;5021331;28;20041;-48
2021/12/06 06:14:34;;;;;;;2.88;1.15;;;22.80;38.70;;;;;;5022292;28;20574;-47
2021/12/06 06:17:09;;;;;;;3.47;1.17;;;22.90;38.70;;;;;;5023853;28;20030;-47
2021/12/06 06:19:36;;;;;;;3.20;1.42;;;23.00;38.70;;;;;;5022914;28;20017;-47
2021/12/06 06:22:03;;;;;;;3.80;1.42;;;23.00;38.90;;;;;;5023200;28;20064;-47
2021/12/06 06:24:29;;;;;;;2.83;1.20;;;23.10;39.10;;;;;;5021544;28;20280;-46
2021/12/06 06:26:54;;;;;;;5.00;1.25;;;23.20;39.20;;;;;;5022878;28;20025;-46
2021/12/06 06:29:20;;;;;;;5.72;1.98;;;23.20;39.60;;;;;;5023371;28;20059;-49
2021/12/06 06:31:46;;;;;;;3.22;1.35;;;23.30;39.60;;;;;;5022727;28;20112;-47
2021/12/06 06:34:12;;;;;;;4.70;1.80;;;23.40;39.40;;;;;;5023723;28;20032;-47
2021/12/06 06:36:38;;;;;;;3.47;1.60;;;23.50;39.50;;;;;;5023890;28;20033;-47
2021/12/06 06:39:09;;;;;;;4.88;1.50;;;23.50;39.80;;;;;;5022397;28;20532;-46
2021/12/06 06:41:35;;;;;;;4.13;1.60;;;23.60;39.10;;;;;;5023199;28;20703;-48
2021/12/06 06:44:02;;;;;;;3.45;1.55;;;23.60;38.90;;;;;;5017982;28;20025;-46
2021/12/06 06:46:27;;;;;;;3.30;1.52;;;23.70;38.90;;;;;;5027540;28;20025;-49
2021/12/06 06:48:54;;;;;;;5.00;1.70;;;23.80;38.80;;;;;;5026252;28;20060;-47
2021/12/06 06:51:20;;;;;;;3.80;1.52;;;23.80;38.70;;;;;;5023445;28;20112;-46
2021/12/06 06:53:46;;;;;;;3.17;1.48;;;23.90;38.60;;;;;;5004108;28;20141;-47
2021/12/06 06:56:11;;;;;;;3.70;1.80;;;23.90;38.60;;;;;;5004461;28;20061;-45
2021/12/06 06:58:37;;;;;;;3.83;1.48;;;23.90;38.50;;;;;;5003695;28;20084;-45
2021/12/06 07:01:03;;;;;;;3.00;1.33;;;24.00;38.60;;;;;;5002181;28;20505;-46
2021/12/06 07:03:31;;;;;;;2.53;1.42;;;24.10;38.60;;;;;;5003588;28;20518;-47
2021/12/06 07:05:59;;;;;;;3.97;1.30;;;24.10;38.70;;;;;;5002818;28;20121;-45
2021/12/06 07:08:25;;;;;;;3.42;1.40;;;24.10;38.60;;;;;;5004392;28;20025;-49
2021/12/06 07:10:51;;;;;;;3.20;1.42;;;24.20;38.60;;;;;;5004702;28;20096;-46
2021/12/06 07:13:17;;;;;;;4.05;1.40;;;24.20;38.60;;;;;;5004592;28;20036;-45
2021/12/06 07:15:43;;;;;;;4.38;1.60;;;24.30;38.50;;;;;;5022769;28;20026;-45
2021/12/06 07:18:09;;;;;;;3.67;1.40;;;24.30;38.40;;;;;;5022804;28;20517;-45
2021/12/06 07:20:35;;;;;;;3.47;1.50;;;24.30;38.20;;;;;;5021217;28;20567;-46
2021/12/06 07:23:03;;;;;;;3.03;1.45;;;24.30;38.00;;;;;;5022955;28;20501;-46
2021/12/06 07:25:29;;;;;;;3.53;1.85;;;24.30;38.20;;;;;;5022825;28;20017;-45
2021/12/06 07:27:56;;;;;;;3.53;1.63;;;24.40;37.80;;;;;;5021428;28;20036;-44
2021/12/06 07:30:22;;;;;;;3.40;1.80;;;24.40;37.40;;;;;;5022925;28;20732;-45
2021/12/06 07:32:50;;;;;;;2.90;1.80;;;24.40;37.30;;;;;;5022279;28;20021;-46
2021/12/06 07:35:16;;;;;;;3.63;1.60;;;24.40;37.40;;;;;;5021900;28;20024;-47
2021/12/06 07:37:42;;;;;;;2.65;1.27;;;24.40;37.20;;;;;;5022011;28;20025;-46
2021/12/06 07:40:10;;;;;;;2.97;1.60;;;24.40;37.00;;;;;;5022604;28;20104;-46
2021/12/06 07:42:37;;;;;;;3.92;1.90;;;24.40;37.10;;;;;;5019810;28;20029;-47
2021/12/06 07:45:05;;;;;;;3.70;1.98;;;24.40;37.30;;;;;;5022722;28;20021;-46
2021/12/06 07:47:30;;;;;;;3.00;1.45;;;24.40;37.60;;;;;;5021283;28;20021;-44
2021/12/06 07:49:56;;;;;;;4.28;1.80;;;24.40;37.50;;;;;;5035317;28;20030;-45
2021/12/06 07:52:22;;;;;;;3.88;1.80;;;24.50;37.60;;;;;;5021325;28;20038;-46
2021/12/06 07:54:48;;;;;;;4.93;2.20;;;24.50;37.50;;;;;;5023299;28;20040;-44
2021/12/06 07:57:14;;;;;;;8.93;3.17;;;24.50;37.50;;;;;;5024571;28;20025;-46
2021/12/06 07:59:40;;;;;;;12.82;4.38;;;24.50;37.30;;;;;;5023813;28;20013;-45
2021/12/06 08:02:08;;;;;;;12.43;4.88;;;24.50;37.50;;;;;;5027282;28;20105;-45
2021/12/06 08:04:34;;;;;;;15.30;5.13;;;24.50;37.30;;;;;;5027243;28;20041;-45
2021/12/06 08:07:00;;;;;;;14.98;5.45;;;24.50;37.30;;;;;;5027703;28;20037;-44
2021/12/06 08:09:25;;;;;;;15.35;5.32;;;24.50;37.10;;;;;;5028018;28;20512;-45
2021/12/06 08:11:51;;;;;;;14.73;5.88;;;24.50;37.10;;;;;;5027401;28;20036;-45
2021/12/06 08:14:17;;;;;;;14.63;4.82;;;24.50;37.10;;;;;;5027282;28;20481;-45
2021/12/06 08:16:44;;;;;;;9.98;4.63;;;24.50;37.10;;;;;;5027707;28;20777;-45
2021/12/06 08:19:13;;;;;;;11.00;4.78;;;24.40;36.80;;;;;;5027807;28;20257;-45
2021/12/06 08:21:39;;;;;;;11.10;4.60;;;24.40;36.90;;;;;;5017969;28;20030;-45
2021/12/06 08:24:07;;;;;;;12.27;5.10;;;24.40;36.90;;;;;;5007978;28;20398;-45
2021/12/06 08:26:36;;;;;;;11.52;4.35;;;24.40;36.90;;;;;;5008183;28;20041;-44
2021/12/06 08:29:06;;;;;;;10.00;4.15;;;24.40;36.90;;;;;;5008064;28;20030;-45
2021/12/06 08:31:33;;;;;;;10.70;4.47;;;24.40;36.90;;;;;;5007794;28;20613;-45
2021/12/06 08:33:59;;;;;;;10.10;4.18;;;24.40;36.80;;;;;;5007570;28;20026;-44
2021/12/06 08:36:25;;;;;;;10.23;4.47;;;24.40;36.70;;;;;;5014733;28;20045;-44
2021/12/06 08:38:52;;;;;;;10.15;3.90;;;24.40;36.80;;;;;;5027191;28;20029;-45
2021/12/06 08:41:24;;;;;;;10.80;4.43;;;24.40;36.70;;;;;;5027023;28;20388;-44
2021/12/06 08:43:51;;;;;;;7.15;3.42;;;24.40;36.70;;;;;;5026443;28;20064;-45
2021/12/06 08:46:22;;;;;;;6.53;3.28;;;24.40;36.90;;;;;;5027079;28;20281;-44
2021/12/06 08:48:50;;;;;;;7.20;3.47;;;24.40;36.80;;;;;;5025426;28;20334;-45
2021/12/06 08:51:21;;;;;;;6.88;3.40;;;24.40;36.80;;;;;;5037191;28;20037;-45
2021/12/06 08:53:48;;;;;;;6.47;3.35;;;24.40;36.70;;;;;;5026993;28;20025;-43
2021/12/06 08:56:14;;;;;;;7.05;3.17;;;24.40;36.90;;;;;;5026882;28;20029;-45
2021/12/06 08:58:41;;;;;;;7.45;3.65;;;24.50;36.90;;;;;;5027143;28;20026;-45
2021/12/06 09:01:07;;;;;;;6.80;3.28;;;24.40;36.80;;;;;;5026979;28;20033;-46
2021/12/06 09:03:34;;;;;;;7.15;3.67;;;24.40;36.70;;;;;;5026321;28;20026;-45
2021/12/06 09:06:04;;;;;;;5.85;3.22;;;24.40;36.70;;;;;;5022074;28;20060;-44
2021/12/06 09:08:31;;;;;;;5.88;3.05;;;24.40;36.70;;;;;;5007050;28;20038;-45
2021/12/06 09:10:57;;;;;;;7.97;2.97;;;24.40;36.60;;;;;;5007036;28;20120;-45
2021/12/06 09:13:26;;;;;;;6.93;3.50;;;24.40;36.60;;;;;;5006788;28;20117;-46
2021/12/06 09:15:53;;;;;;;7.28;3.33;;;24.40;36.60;;;;;;5024505;28;20013;-45
2021/12/06 09:18:20;;;;;;;5.43;3.00;;;24.40;36.60;;;;;;5026604;28;20045;-44
2021/12/06 09:20:48;;;;;;;6.38;3.33;;;24.40;36.50;;;;;;5025053;28;20029;-44
2021/12/06 09:23:15;;;;;;;6.13;2.80;;;24.40;36.50;;;;;;5026099;28;20025;-46
2021/12/06 09:25:44;;;;;;;6.75;2.78;;;24.40;36.50;;;;;;5008673;28;20068;-46
2021/12/06 09:28:12;;;;;;;4.78;2.83;;;24.40;36.50;;;;;;5025104;28;20057;-45
2021/12/06 09:30:38;;;;;;;6.47;3.10;;;24.40;36.50;;;;;;5025444;28;20030;-45
2021/12/06 09:33:07;;;;;;;6.97;2.65;;;24.50;36.50;;;;;;5025963;28;20044;-44
2021/12/06 09:35:36;;;;;;;6.45;3.10;;;24.40;36.50;;;;;;5026319;28;20031;-44
2021/12/06 09:38:04;;;;;;;6.10;2.60;;;24.50;36.50;;;;;;5006470;28;20912;-44
2021/12/06 09:40:30;;;;;;;4.68;2.15;;;24.50;36.50;;;;;;5006506;28;20096;-44
2021/12/06 09:42:59;;;;;;;5.63;2.72;;;24.40;36.50;;;;;;5006274;28;20030;-44
2021/12/06 09:45:28;;;;;;;5.75;2.40;;;24.40;36.50;;;;;;5019887;28;20224;-46
2021/12/06 09:47:54;;;;;;;4.80;2.70;;;24.50;36.50;;;;;;5026386;28;20566;-44
2021/12/06 09:50:27;;;;;;;4.90;2.47;;;24.50;36.50;;;;;;5035119;28;20474;-45
2021/12/06 09:52:56;;;;;;;5.72;2.80;;;24.50;36.50;;;;;;5027250;28;20105;-45
2021/12/06 09:55:23;;;;;;;5.55;2.90;;;24.50;36.50;;;;;;5026142;28;20120;-45
2021/12/06 09:57:49;;;;;;;5.25;2.72;;;24.50;36.40;;;;;;5026164;28;20474;-46
2021/12/06 10:00:18;;;;;;;4.90;2.90;;;24.50;36.30;;;;;;5025745;28;20106;-44
2021/12/06 10:02:43;;;;;;;4.43;2.30;;;24.50;36.30;;;;;;5025054;28;20445;-45
2021/12/06 10:05:10;;;;;;;4.35;2.50;;;24.50;36.40;;;;;;5026054;28;20120;-45
2021/12/06 10:07:36;;;;;;;3.25;1.75;;;24.50;36.40;;;;;;5025727;28;20103;-44
2021/12/06 10:10:07;;;;;;;4.55;2.67;;;24.50;36.40;;;;;;5025574;28;20502;-45
2021/12/06 10:12:34;;;;;;;5.88;2.22;;;24.50;36.30;;;;;;5025441;28;20029;-44
2021/12/06 10:15:02;;;;;;;4.28;2.30;;;24.50;36.30;;;;;;5025813;28;20182;-44
2021/12/06 10:17:28;;;;;;;4.97;2.25;;;24.50;36.30;;;;;;5023727;28;20049;-45
2021/12/06 10:19:54;;;;;;;5.57;2.22;;;24.50;36.40;;;;;;5025696;28;20057;-46
2021/12/06 10:22:19;;;;;;;4.93;2.20;;;24.50;36.30;;;;;;5024929;28;20025;-44
2021/12/06 10:24:54;;;;;;;4.25;2.35;;;24.50;36.30;;;;;;5025929;28;20029;-44
2021/12/06 10:27:20;;;;;;;4.40;2.13;;;24.50;36.30;;;;;;5025452;28;20522;-44
2021/12/06 10:30:00;;;;;;;4.38;2.20;;;24.50;36.30;;;;;;5025579;28;20171;-46
2021/12/06 10:32:30;;;;;;;3.88;1.98;;;24.50;36.40;;;;;;5025250;28;20029;-45
2021/12/06 10:35:06;;;;;;;5.20;2.45;;;24.50;36.30;;;;;;5025409;28;20033;-45
2021/12/06 10:37:45;;;;;;;4.32;2.15;;;24.50;36.30;;;;;;5024914;28;20030;-46
2021/12/06 10:40:17;;;;;;;4.55;2.40;;;24.50;36.30;;;;;;5024811;28;20520;-44
2021/12/06 10:42:45;;;;;;;4.78;2.58;;;24.50;36.30;;;;;;5024939;28;20030;-47
2021/12/06 10:45:36;;;;;;;3.65;1.95;;;24.50;36.30;;;;;;5025301;28;20040;-45
2021/12/06 10:48:14;;;;;;;3.85;1.85;;;24.50;36.40;;;;;;5024895;28;20124;-46
2021/12/06 10:50:43;;;;;;;3.88;2.30;;;24.50;36.20;;;;;;5036420;28;20036;-44
2021/12/06 10:53:11;;;;;;;4.07;2.17;;;24.50;36.30;;;;;;5005367;28;20486;-44
2021/12/06 10:55:38;;;;;;;4.18;2.17;;;24.50;36.30;;;;;;5005627;28;20022;-45
2021/12/06 10:58:07;;;;;;;4.40;2.63;;;24.50;36.30;;;;;;5005396;28;20037;-45
2021/12/06 11:00:41;;;;;;;2.97;1.75;;;24.50;36.30;;;;;;5005152;28;20103;-45
2021/12/06 11:03:27;;;;;;;3.70;1.92;;;24.50;36.20;;;;;;5004436;28;20033;-45
2021/12/06 11:06:02;;;;;;;3.95;2.00;;;24.50;36.30;;;;;;5005493;28;20521;-45
2021/12/06 11:08:29;;;;;;;4.93;2.30;;;24.50;36.30;;;;;;5024920;28;20052;-45
2021/12/06 11:11:01;;;;;;;3.45;1.90;;;24.50;36.30;;;;;;5024866;28;20429;-46
2021/12/06 11:13:36;;;;;;;4.15;2.17;;;24.40;36.20;;;;;;5024389;28;20120;-45
2021/12/06 11:16:12;;;;;;;3.65;2.05;;;24.40;36.10;;;;;;5025153;28;20064;-44
2021/12/06 11:18:38;;;;;;;4.68;2.42;;;24.40;36.20;;;;;;5023343;28;20033;-44
2021/12/06 11:21:13;;;;;;;3.70;1.98;;;24.40;36.30;;;;;;5024618;28;20517;-43
2021/12/06 11:24:00;;;;;;;3.95;1.88;;;24.40;36.30;;;;;;5022909;28;20038;-46
2021/12/06 11:26:27;;;;;;;3.97;2.13;;;24.40;36.20;;;;;;5024626;28;20081;-45
2021/12/06 11:28:53;;;;;;;4.03;2.10;;;24.40;36.30;;;;;;5024087;28;20083;-44
2021/12/06 11:31:19;;;;;;;3.90;2.30;;;24.40;37.00;;;;;;5024885;28;20029;-44
2021/12/06 11:34:00;;;;;;;3.15;1.73;;;24.40;36.20;;;;;;5024494;28;20044;-45
2021/12/06 11:36:30;;;;;;;3.70;1.73;;;24.40;36.30;;;;;;5024655;28;20101;-44
2021/12/06 11:39:06;;;;;;;3.70;1.77;;;24.40;36.20;;;;;;5024443;28;20097;-44
2021/12/06 11:41:33;;;;;;;4.30;2.20;;;24.40;36.30;;;;;;5024574;28;20064;-44
2021/12/06 11:44:14;;;;;;;4.28;2.03;;;24.40;36.20;;;;;;5024364;28;20041;-46
2021/12/06 11:46:39;;;;;;;4.32;1.83;;;24.40;36.30;;;;;;5024360;28;20624;-46
2021/12/06 11:49:28;;;;;;;3.20;1.60;;;24.40;36.30;;;;;;5024389;28;20048;-44
2021/12/06 11:51:54;;;;;;;3.40;1.77;;;24.40;36.40;;;;;;5012532;28;20035;-46
2021/12/06 11:54:20;;;;;;;3.67;2.00;;;24.40;36.30;;;;;;5024407;28;20052;-45
2021/12/06 11:56:48;;;;;;;3.78;1.83;;;24.40;36.30;;;;;;5024406;28;20026;-44
2021/12/06 11:59:18;;;;;;;3.83;1.75;;;24.40;36.30;;;;;;5024281;28;20543;-45
2021/12/06 12:01:55;;;;;;;3.58;1.88;;;24.40;36.20;;;;;;5024184;28;20029;-45
2021/12/06 12:04:24;;;;;;;4.32;2.33;;;24.40;36.30;;;;;;5023725;28;20036;-44
2021/12/06 12:06:56;;;;;;;4.10;2.25;;;24.40;36.30;;;;;;5024054;28;20473;-46
2021/12/06 12:09:31;;;;;;;3.50;1.88;;;24.40;36.20;;;;;;5024563;28;20258;-45
2021/12/06 12:11:59;;;;;;;2.78;1.63;;;24.40;36.30;;;;;;5022673;28;20514;-46
2021/12/06 12:14:32;;;;;;;3.55;2.17;;;24.40;36.20;;;;;;5006024;28;20029;-45
2021/12/06 12:17:01;;;;;;;2.78;1.80;;;24.40;36.20;;;;;;5024044;28;20463;-45
2021/12/06 12:19:28;;;;;;;3.17;1.50;;;24.40;36.20;;;;;;5024245;28;20045;-45
2021/12/06 12:21:54;;;;;;;3.47;1.90;;;24.40;36.30;;;;;;5024158;28;20022;-45
2021/12/06 12:24:20;;;;;;;3.53;1.63;;;24.40;36.30;;;;;;5024247;28;20044;-44
2021/12/06 12:27:17;;;;;;;3.15;1.70;;;24.40;36.30;;;;;;5024135;28;20036;-44
2021/12/06 12:29:45;;;;;;;3.80;2.05;;;24.40;36.30;;;;;;5024476;28;20029;-45
2021/12/06 12:32:11;;;;;;;3.60;1.77;;;24.40;36.40;;;;;;5023392;28;20051;-47
2021/12/06 12:34:41;;;;;;;3.50;1.75;;;24.40;36.30;;;;;;5024257;28;20400;-46
2021/12/06 12:37:07;;;;;;;3.63;2.13;;;24.40;36.20;;;;;;5014568;28;20026;-46
2021/12/06 12:39:34;;;;;;;3.47;1.65;;;24.30;36.20;;;;;;5004338;28;20113;-45
2021/12/06 12:42:02;;;;;;;4.68;1.60;;;24.30;36.30;;;;;;5007187;28;20018;-44
2021/12/06 12:44:44;;;;;;;5.22;1.83;;;24.30;36.30;;;;;;5013684;28;20026;-44
2021/12/06 12:47:19;;;;;;;3.37;1.57;;;24.30;36.30;;;;;;5027376;28;20029;-45
2021/12/06 12:49:53;;;;;;;3.72;1.58;;;24.30;36.30;;;;;;5031103;28;20659;-44
2021/12/06 12:52:59;;;;;;;4.85;2.10;;;24.30;36.30;;;;;;5036400;28;20036;-46
2021/12/06 12:55:32;;;;;;;4.60;1.83;;;24.30;36.30;;;;;;5028056;28;20029;-44
2021/12/06 12:58:13;;;;;;;4.00;1.95;;;24.30;36.40;;;;;;5029803;28;20036;-46
2021/12/06 13:00:47;;;;;;;5.25;2.47;;;24.30;36.30;;;;;;5027206;28;20343;-44